sensor_id;sensor_type;location;lat;lon;timestamp;temperature;humidity
1524;DHT22;755;53.658;10.118;2022-09-16T00:08:53;11.00;99.90
1524;DHT22;755;53.658;10.118;2022-09-16T00:18:56;11.00;99.90
1524;DHT22;755;53.658;10.118;2022-09-16T00:29:00;10.90;99.90
1524;DHT22;755;53.658;10.118;2022-09-16T00:39:03;11.00;99.90
1524;DHT22;755;53.658;10.118;2022-09-16T00:49:10;11.10;99.90
1524;DHT22;755;53.658;10.118;2022-09-16T00:59:16;11.20;99.90
1524;DHT22;755;53.658;10.118;2022-09-16T01:09:22;11.20;99.90
1524;DHT22;755;53.658;10.118;2022-09-16T01:19:42;11.20;99.90
1524;DHT22;755;53.658;10.118;2022-09-16T01:40:38;11.10;99.90
1524;DHT22;755;53.658;10.118;2022-09-16T01:50:46;11.10;99.90
1524;DHT22;755;53.658;10.118;2022-09-16T02:00:55;11.10;99.90
1524;DHT22;755;53.658;10.118;2022-09-16T02:11:00;10.90;99.90
1524;DHT22;755;53.658;10.118;2022-09-16T02:21:06;10.80;99.90
1524;DHT22;755;53.658;10.118;2022-09-16T02:31:11;10.80;99.90
1524;DHT22;755;53.658;10.118;2022-09-16T02:41:15;10.70;99.90
1524;DHT22;755;53.658;10.118;2022-09-16T02:51:26;10.80;99.90
1524;DHT22;755;53.658;10.118;2022-09-16T03:01:36;10.70;99.90
1524;DHT22;755;53.658;10.118;2022-09-16T03:11:53;10.70;99.90
1524;DHT22;755;53.658;10.118;2022-09-16T03:22:03;10.70;99.90
1524;DHT22;755;53.658;10.118;2022-09-16T03:32:14;10.80;99.90
1524;DHT22;755;53.658;10.118;2022-09-16T03:42:24;10.80;99.90
1524;DHT22;755;53.658;10.118;2022-09-16T03:52:26;10.70;99.90
1524;DHT22;755;53.658;10.118;2022-09-16T04:02:32;10.50;99.90
1524;DHT22;755;53.658;10.118;2022-09-16T04:12:35;10.50;99.90
1524;DHT22;755;53.658;10.118;2022-09-16T04:22:39;10.60;99.90
1524;DHT22;755;53.658;10.118;2022-09-16T04:32:42;10.50;99.90
1524;DHT22;755;53.658;10.118;2022-09-16T04:42:48;10.30;99.90
1524;DHT22;755;53.658;10.118;2022-09-16T04:52:51;10.30;99.90
1524;DHT22;755;53.658;10.118;2022-09-16T05:02:55;10.30;99.90
1524;DHT22;755;53.658;10.118;2022-09-16T05:12:57;10.20;99.90
1524;DHT22;755;53.658;10.118;2022-09-16T05:23:00;10.30;99.90
1524;DHT22;755;53.658;10.118;2022-09-16T05:33:02;10.40;99.90
1524;DHT22;755;53.658;10.118;2022-09-16T05:43:05;10.30;99.90
1524;DHT22;755;53.658;10.118;2022-09-16T05:53:07;10.30;99.90
1524;DHT22;755;53.658;10.118;2022-09-16T06:03:11;10.40;99.90
1524;DHT22;755;53.658;10.118;2022-09-16T06:13:13;10.50;99.90
1524;DHT22;755;53.658;10.118;2022-09-16T06:23:18;10.50;99.90
1524;DHT22;755;53.658;10.118;2022-09-16T06:33:21;10.80;99.90
1524;DHT22;755;53.658;10.118;2022-09-16T06:43:24;10.70;99.90
1524;DHT22;755;53.658;10.118;2022-09-16T06:53:28;10.70;99.90
1524;DHT22;755;53.658;10.118;2022-09-16T07:03:31;10.80;99.90
1524;DHT22;755;53.658;10.118;2022-09-16T07:13:33;11.00;99.90
1524;DHT22;755;53.658;10.118;2022-09-16T07:23:38;11.30;99.90
1524;DHT22;755;53.658;10.118;2022-09-16T07:33:42;11.90;99.90
1524;DHT22;755;53.658;10.118;2022-09-16T07:43:46;12.70;99.90
1524;DHT22;755;53.658;10.118;2022-09-16T07:53:52;12.70;99.90
1524;DHT22;755;53.658;10.118;2022-09-16T08:03:56;14.00;99.90
1524;DHT22;755;53.658;10.118;2022-09-16T08:13:58;14.70;99.90
1524;DHT22;755;53.658;10.118;2022-09-16T08:24:02;15.00;71.40
1524;DHT22;755;53.658;10.118;2022-09-16T08:34:04;16.00;1.00
1524;DHT22;755;53.658;10.118;2022-09-16T08:44:19;15.60;98.80
1524;DHT22;755;53.658;10.118;2022-09-16T08:54:27;13.60;99.90
1524;DHT22;755;53.658;10.118;2022-09-16T09:04:33;12.90;99.90
1524;DHT22;755;53.658;10.118;2022-09-16T09:14:44;12.80;99.90
1524;DHT22;755;53.658;10.118;2022-09-16T09:25:01;14.10;99.90
1524;DHT22;755;53.658;10.118;2022-09-16T09:35:19;15.00;99.90
1524;DHT22;755;53.658;10.118;2022-09-16T09:45:28;15.30;99.90
1524;DHT22;755;53.658;10.118;2022-09-16T09:55:32;16.30;1.00
1524;DHT22;755;53.658;10.118;2022-09-16T10:05:36;16.70;99.90
1524;DHT22;755;53.658;10.118;2022-09-16T10:15:38;16.80;1.00
1524;DHT22;755;53.658;10.118;2022-09-16T10:25:42;16.40;1.00
1524;DHT22;755;53.658;10.118;2022-09-16T10:35:51;15.20;41.50
1524;DHT22;755;53.658;10.118;2022-09-16T10:45:58;15.40;1.00
1524;DHT22;755;53.658;10.118;2022-09-16T10:56:02;15.70;1.00
1524;DHT22;755;53.658;10.118;2022-09-16T11:06:19;15.70;1.00
1524;DHT22;755;53.658;10.118;2022-09-16T11:16:35;16.10;1.00
1524;DHT22;755;53.658;10.118;2022-09-16T11:26:50;16.10;1.00
1524;DHT22;755;53.658;10.118;2022-09-16T11:37:04;15.60;99.90
1524;DHT22;755;53.658;10.118;2022-09-16T11:47:27;14.20;99.90
1524;DHT22;755;53.658;10.118;2022-09-16T11:57:35;13.60;99.90
1524;DHT22;755;53.658;10.118;2022-09-16T12:07:44;13.50;99.90
1524;DHT22;755;53.658;10.118;2022-09-16T12:17:52;14.10;99.90
1524;DHT22;755;53.658;10.118;2022-09-16T12:28:00;14.80;99.90
1524;DHT22;755;53.658;10.118;2022-09-16T12:38:04;13.90;99.90
1524;DHT22;755;53.658;10.118;2022-09-16T12:48:22;13.50;99.90
1524;DHT22;755;53.658;10.118;2022-09-16T12:58:49;13.90;99.90
1524;DHT22;755;53.658;10.118;2022-09-16T13:08:55;14.20;99.90
1524;DHT22;755;53.658;10.118;2022-09-16T13:19:22;13.50;99.90
1524;DHT22;755;53.658;10.118;2022-09-16T13:29:39;13.60;99.90
1524;DHT22;755;53.658;10.118;2022-09-16T13:39:43;13.40;99.90
1524;DHT22;755;53.658;10.118;2022-09-16T13:49:50;13.50;99.90
1524;DHT22;755;53.658;10.118;2022-09-16T14:00:14;13.20;99.90
1524;DHT22;755;53.658;10.118;2022-09-16T14:10:27;13.00;99.90
1524;DHT22;755;53.658;10.118;2022-09-16T14:20:32;12.50;99.90
1524;DHT22;755;53.658;10.118;2022-09-16T14:30:36;12.20;99.90
1524;DHT22;755;53.658;10.118;2022-09-16T14:40:38;12.00;99.90
1524;DHT22;755;53.658;10.118;2022-09-16T14:50:44;11.90;99.90
1524;DHT22;755;53.658;10.118;2022-09-16T15:00:49;11.70;99.90
1524;DHT22;755;53.658;10.118;2022-09-16T15:10:56;11.60;99.90
1524;DHT22;755;53.658;10.118;2022-09-16T15:21:04;11.60;99.90
1524;DHT22;755;53.658;10.118;2022-09-16T15:31:09;11.60;99.90
1524;DHT22;755;53.658;10.118;2022-09-16T15:41:12;11.60;99.90
1524;DHT22;755;53.658;10.118;2022-09-16T15:51:27;11.70;99.90
1524;DHT22;755;53.658;10.118;2022-09-16T16:01:42;11.90;99.90
1524;DHT22;755;53.658;10.118;2022-09-16T16:11:47;12.10;99.90
1524;DHT22;755;53.658;10.118;2022-09-16T16:21:50;12.30;99.90
1524;DHT22;755;53.658;10.118;2022-09-16T16:31:59;12.40;99.90
1524;DHT22;755;53.658;10.118;2022-09-16T16:42:02;12.40;99.90
1524;DHT22;755;53.658;10.118;2022-09-16T16:52:07;12.60;99.90
1524;DHT22;755;53.658;10.118;2022-09-16T17:02:10;12.90;99.90
1524;DHT22;755;53.658;10.118;2022-09-16T17:12:16;13.10;99.90
1524;DHT22;755;53.658;10.118;2022-09-16T17:22:18;13.20;99.90
1524;DHT22;755;53.658;10.118;2022-09-16T17:32:21;13.20;99.90
1524;DHT22;755;53.658;10.118;2022-09-16T17:42:23;13.20;99.90
1524;DHT22;755;53.658;10.118;2022-09-16T17:52:28;13.20;99.90
1524;DHT22;755;53.658;10.118;2022-09-16T18:02:30;13.10;99.90
1524;DHT22;755;53.658;10.118;2022-09-16T18:12:33;13.10;99.90
1524;DHT22;755;53.658;10.118;2022-09-16T18:22:36;13.00;99.90
1524;DHT22;755;53.658;10.118;2022-09-16T18:32:39;12.80;99.90
1524;DHT22;755;53.658;10.118;2022-09-16T18:42:41;12.80;99.90
1524;DHT22;755;53.658;10.118;2022-09-16T18:52:45;12.80;99.90
1524;DHT22;755;53.658;10.118;2022-09-16T19:02:48;12.90;99.90
1524;DHT22;755;53.658;10.118;2022-09-16T19:12:52;12.90;99.90
1524;DHT22;755;53.658;10.118;2022-09-16T19:22:54;12.90;99.90
1524;DHT22;755;53.658;10.118;2022-09-16T19:32:58;12.80;99.90
1524;DHT22;755;53.658;10.118;2022-09-16T19:43:00;12.80;99.90
1524;DHT22;755;53.658;10.118;2022-09-16T19:53:03;12.60;99.90
1524;DHT22;755;53.658;10.118;2022-09-16T20:03:05;12.50;99.90
1524;DHT22;755;53.658;10.118;2022-09-16T20:13:08;12.40;99.90
1524;DHT22;755;53.658;10.118;2022-09-16T20:23:12;12.20;99.90
1524;DHT22;755;53.658;10.118;2022-09-16T20:33:15;12.20;99.90
1524;DHT22;755;53.658;10.118;2022-09-16T20:43:17;12.10;99.90
1524;DHT22;755;53.658;10.118;2022-09-16T20:53:20;12.00;99.90
1524;DHT22;755;53.658;10.118;2022-09-16T21:03:22;11.90;99.90
1524;DHT22;755;53.658;10.118;2022-09-16T21:13:26;11.80;99.90
1524;DHT22;755;53.658;10.118;2022-09-16T21:23:28;11.80;99.90
1524;DHT22;755;53.658;10.118;2022-09-16T21:33:33;11.70;99.90
1524;DHT22;755;53.658;10.118;2022-09-16T21:43:38;11.70;99.90
1524;DHT22;755;53.658;10.118;2022-09-16T21:53:43;11.70;99.90
1524;DHT22;755;53.658;10.118;2022-09-16T22:03:52;11.60;99.90
1524;DHT22;755;53.658;10.118;2022-09-16T22:13:56;11.60;99.90
1524;DHT22;755;53.658;10.118;2022-09-16T22:24:01;11.60;99.90
1524;DHT22;755;53.658;10.118;2022-09-16T22:34:05;11.50;99.90
1524;DHT22;755;53.658;10.118;2022-09-16T22:44:08;11.50;99.90
1524;DHT22;755;53.658;10.118;2022-09-16T22:54:12;11.40;99.90
1524;DHT22;755;53.658;10.118;2022-09-16T23:04:17;11.50;99.90
1524;DHT22;755;53.658;10.118;2022-09-16T23:14:22;11.60;99.90
1524;DHT22;755;53.658;10.118;2022-09-16T23:24:26;11.70;99.90
1524;DHT22;755;53.658;10.118;2022-09-16T23:34:30;11.70;99.90
1524;DHT22;755;53.658;10.118;2022-09-16T23:44:32;11.80;99.90
1524;DHT22;755;53.658;10.118;2022-09-16T23:54:36;11.80;99.90
